EZY67MW EGNT-LTBS
Flight info
| Callsign | EZY67MW |
|---|---|
| Flight time | N/A |
| Altitude | 37000 |
| Route | GIRLI P18 GASKO Y250 MAMUL L603 LAMSO DCT EVELI DCT NIGUG DCT TIVUN DCT ESAMA DCT OSBIT DCT TENLO DCT LAMSI DCT SITNI DCT SASAL DCT SOGMO DCT BABIT DCT KOTUS DCT OKLOP DCT NISVA DCT USALI DCT OTKOK DCT RODIP UN131 DUGLA UT350 NEXAM |
| Aircraft | A20N/M-SDE2E3FGHIJ1RWXYZ/LB1 |
Departure
| Time | N/A |
|---|---|
| Airport | Newcastle International Airport (EGNT) |
Arrival
| Time | 2026-04-27 19:15 |
|---|---|
| Airport | Dalaman International Airport (LTBS) |
| Time | Latitude | Longitude | Altitude | Speed | Heading |
|---|---|---|---|---|---|
| 2026-04-27 19:03 | 37.08670 | 29.10046 | 9294 ft | 289 kts | 234° |
| 2026-04-27 19:04 | 37.06872 | 29.07601 | 9029 ft | 287 kts | 220° |
| 2026-04-27 19:04 | 37.05253 | 29.06130 | 8993 ft | 288 kts | 214° |
| 2026-04-27 19:04 | 37.03714 | 29.04844 | 8917 ft | 287 kts | 213° |
| 2026-04-27 19:04 | 37.02032 | 29.03495 | 8624 ft | 286 kts | 212° |
| 2026-04-27 19:05 | 37.00334 | 29.02193 | 8229 ft | 286 kts | 211° |
| 2026-04-27 19:05 | 36.98626 | 29.00921 | 7939 ft | 281 kts | 211° |
| 2026-04-27 19:05 | 36.96986 | 28.99717 | 7775 ft | 264 kts | 211° |
| 2026-04-27 19:05 | 36.95469 | 28.98609 | 7627 ft | 247 kts | 211° |
| 2026-04-27 19:06 | 36.94017 | 28.97523 | 7417 ft | 241 kts | 215° |
| 2026-04-27 19:06 | 36.92723 | 28.96204 | 7133 ft | 240 kts | 221° |
| 2026-04-27 19:06 | 36.91442 | 28.94830 | 6845 ft | 239 kts | 221° |
| 2026-04-27 19:06 | 36.90221 | 28.93470 | 6560 ft | 237 kts | 230° |
| 2026-04-27 19:07 | 36.89533 | 28.91762 | 6299 ft | 234 kts | 261° |
| 2026-04-27 19:07 | 36.89532 | 28.89723 | 6031 ft | 236 kts | 286° |
| 2026-04-27 19:07 | 36.90322 | 28.87972 | 5754 ft | 232 kts | 317° |
| 2026-04-27 19:07 | 36.91693 | 28.87030 | 5412 ft | 231 kts | 349° |
| 2026-04-27 19:08 | 36.93275 | 28.87153 | 5079 ft | 230 kts | 22° |
| 2026-04-27 19:08 | 36.94548 | 28.88320 | 4748 ft | 230 kts | 55° |
| 2026-04-27 19:08 | 36.95106 | 28.90157 | 4428 ft | 228 kts | 88° |
| 2026-04-27 19:08 | 36.94770 | 28.92056 | 4131 ft | 226 kts | 121° |
| 2026-04-27 19:09 | 36.93660 | 28.93400 | 3824 ft | 225 kts | 154° |
| 2026-04-27 19:09 | 36.92146 | 28.93849 | 3540 ft | 225 kts | 176° |
| 2026-04-27 19:09 | 36.90632 | 28.93542 | 3374 ft | 221 kts | 204° |
| 2026-04-27 19:09 | 36.89345 | 28.92621 | 3354 ft | 227 kts | 216° |
| 2026-04-27 19:10 | 36.88111 | 28.91400 | 3351 ft | 226 kts | 220° |
| 2026-04-27 19:10 | 36.86892 | 28.90068 | 3353 ft | 226 kts | 221° |
| 2026-04-27 19:10 | 36.85693 | 28.88781 | 3354 ft | 226 kts | 216° |
| 2026-04-27 19:10 | 36.84786 | 28.88057 | 3350 ft | 225 kts | 210° |
| 2026-04-27 19:11 | 36.82982 | 28.86746 | 3337 ft | 218 kts | 210° |
| 2026-04-27 19:11 | 36.81721 | 28.85827 | 3337 ft | 202 kts | 210° |
| 2026-04-27 19:11 | 36.80511 | 28.84948 | 3347 ft | 204 kts | 208° |
| 2026-04-27 19:11 | 36.79325 | 28.83935 | 3049 ft | 203 kts | 220° |
| 2026-04-27 19:12 | 36.78468 | 28.82870 | 2738 ft | 191 kts | 227° |
| 2026-04-27 19:12 | 36.77550 | 28.81656 | 2091 ft | 194 kts | 221° |
| 2026-04-27 19:12 | 36.76454 | 28.80743 | 1582 ft | 189 kts | 201° |
| 2026-04-27 19:12 | 36.75183 | 28.80387 | 1005 ft | 186 kts | 190° |
| 2026-04-27 19:13 | 36.74040 | 28.80143 | 472 ft | 184 kts | 188° |
| 2026-04-27 19:13 | 36.73083 | 28.79881 | 280 ft | 169 kts | 196° |
| 2026-04-27 19:13 | 36.72703 | 28.79727 | 162 ft | 166 kts | 198° |
| 2026-04-27 19:13 | 36.71633 | 28.79356 | 31 ft | 148 kts | 192° |
| 2026-04-27 19:14 | 36.71574 | 28.79339 | 27 ft | 147 kts | 192° |
| 2026-04-27 19:14 | 36.71541 | 28.79330 | 27 ft | 146 kts | 192° |
| 2026-04-27 19:14 | 36.70893 | 28.79114 | 23 ft | 74 kts | 195° |
| 2026-04-27 19:15 | 36.70664 | 28.79037 | 23 ft | 10 kts | 194° |
| 2026-04-27 19:15 | 36.70600 | 28.79016 | 23 ft | 15 kts | 195° |
| 2026-04-27 19:15 | 36.70488 | 28.78976 | 26 ft | 18 kts | 200° |
| 2026-04-27 19:15 | 36.70409 | 28.78860 | 22 ft | 17 kts | 240° |
| 2026-04-27 19:16 | 36.70353 | 28.78740 | 21 ft | 18 kts | 239° |
| 2026-04-27 19:16 | 36.70345 | 28.78691 | 21 ft | 1 kts | 307° |
| 2026-04-27 19:16 | 36.70360 | 28.78692 | 21 ft | 4 kts | 358° |
| 2026-04-27 19:16 | 36.70398 | 28.78696 | 21 ft | 7 kts | 12° |
| 2026-04-27 19:17 | 36.70457 | 28.78716 | 21 ft | 10 kts | 15° |
| 2026-04-27 19:17 | 36.70536 | 28.78747 | 21 ft | 13 kts | 18° |
| 2026-04-27 19:17 | 36.70634 | 28.78785 | 22 ft | 16 kts | 17° |
| 2026-04-27 19:17 | 36.70749 | 28.78830 | 22 ft | 19 kts | 18° |
| 2026-04-27 19:18 | 36.70881 | 28.78877 | 22 ft | 21 kts | 15° |
| 2026-04-27 19:18 | 36.71029 | 28.78931 | 23 ft | 22 kts | 17° |
| 2026-04-27 19:18 | 36.71172 | 28.78987 | 23 ft | 20 kts | 18° |
| 2026-04-27 19:18 | 36.71300 | 28.79009 | 25 ft | 17 kts | 338° |
| 2026-04-27 19:19 | 36.71355 | 28.78900 | 25 ft | 14 kts | 292° |
| 2026-04-27 19:19 | 36.71426 | 28.78862 | 24 ft | 11 kts | 4° |
| 2026-04-27 19:19 | 36.71479 | 28.78822 | 26 ft | 8 kts | 297° |
| 2026-04-27 19:19 | 36.71509 | 28.78819 | 28 ft | 4 kts | 14° |
| 2026-04-27 19:20 | 36.71546 | 28.78832 | 28 ft | 8 kts | 11° |
| 2026-04-27 19:20 | 36.71605 | 28.78821 | 27 ft | 10 kts | 314° |
| 2026-04-27 19:20 | 36.71610 | 28.78802 | 24 ft | 0 kts | 278° |